Time;durP1;ratioP1;P1;durP2;ratioP2;P2;SDS_P1;SDS_P2;PMS_P1;PMS_P2;Temp;Humidity;BMP_temperature;BMP_pressure;BME280_temperature;BME280_humidity;BME280_pressure;Samples;Min_cycle;Max_cycle;Signal;HPM_P1;HPM_P2
2022/12/05 00:02:03;;;;;;;;;;;4.30;98.90;;;;;;5054307;28;19995;-77
2022/12/05 00:04:30;;;;;;;;;;;4.30;98.90;;;;;;5059163;28;19976;-76
2022/12/05 00:06:58;;;;;;;;;;;4.30;98.90;;;;;;5059051;28;19986;-76
2022/12/05 00:09:25;;;;;;;;;;;4.30;99.00;;;;;;5059596;28;20002;-76
2022/12/05 00:11:51;;;;;;;;;;;4.30;98.90;;;;;;5059729;28;20699;-76
2022/12/05 00:14:18;;;;;;;;;;;4.30;98.90;;;;;;5056645;28;19976;-76
2022/12/05 00:16:44;;;;;;;;;;;4.30;99.00;;;;;;5061371;28;19994;-76
2022/12/05 00:19:12;;;;;;;;;;;4.30;98.90;;;;;;5060602;28;20477;-76
2022/12/05 00:21:39;;;;;;;;;;;4.30;99.00;;;;;;5061215;28;20403;-74
2022/12/05 00:24:08;;;;;;;;;;;4.30;99.00;;;;;;5059964;28;20118;-75
2022/12/05 00:26:35;;;;;;;;;;;4.30;98.90;;;;;;5056585;28;19983;-76
2022/12/05 00:29:02;;;;;;;;;;;4.30;99.00;;;;;;5061414;28;20764;-75
2022/12/05 00:31:29;;;;;;;;;;;4.30;99.00;;;;;;5056765;28;20006;-76
2022/12/05 00:33:56;;;;;;;;;;;4.30;99.00;;;;;;5057654;28;19982;-74
2022/12/05 00:36:23;;;;;;;;;;;4.30;99.00;;;;;;5055411;28;20337;-77
2022/12/05 00:38:50;;;;;;;;;;;4.30;99.00;;;;;;5057246;28;19995;-76
2022/12/05 00:41:19;;;;;;;;;;;4.30;99.00;;;;;;5059138;28;19987;-75
2022/12/05 00:43:46;;;;;;;;;;;4.30;99.00;;;;;;5059527;28;19980;-76
2022/12/05 00:46:13;;;;;;;;;;;4.30;99.00;;;;;;5057626;28;20060;-74
2022/12/05 00:48:40;;;;;;;;;;;4.30;99.00;;;;;;5052049;28;19997;-76
2022/12/05 00:51:08;;;;;;;;;;;4.30;99.00;;;;;;5057145;28;19975;-77
2022/12/05 00:53:35;;;;;;;;;;;4.30;99.00;;;;;;5061059;28;19998;-75
2022/12/05 00:56:03;;;;;;;;;;;4.30;99.10;;;;;;5063226;28;19976;-77
2022/12/05 00:58:31;;;;;;;;;;;4.30;99.00;;;;;;5062663;28;20033;-76
2022/12/05 01:00:58;;;;;;;;;;;4.30;99.00;;;;;;5061778;28;19998;-76
2022/12/05 01:03:24;;;;;;;;;;;4.30;99.00;;;;;;5062913;28;19982;-76
2022/12/05 01:05:51;;;;;;;;;;;4.30;99.00;;;;;;5059958;28;20066;-77
2022/12/05 01:08:18;;;;;;;;;;;4.30;99.40;;;;;;5063477;28;19979;-77
2022/12/05 01:10:51;;;;;;;;;;;4.30;99.00;;;;;;5061229;28;19997;-77
2022/12/05 01:13:18;;;;;;;;;;;4.30;99.10;;;;;;5067129;28;19988;-77
2022/12/05 01:15:46;;;;;;;;;;;4.30;99.10;;;;;;5067329;28;19998;-76
2022/12/05 01:18:12;;;;;;;;;;;4.30;99.10;;;;;;5065073;28;20355;-77
2022/12/05 01:20:39;;;;;;;;;;;4.30;99.10;;;;;;5066680;28;19975;-75
2022/12/05 01:23:06;;;;;;;;;;;4.30;99.10;;;;;;5063853;28;19975;-76
2022/12/05 01:25:33;;;;;;;;;;;4.30;99.10;;;;;;5056703;28;19975;-76
2022/12/05 01:28:00;;;;;;;;;;;4.30;99.10;;;;;;5061787;28;19986;-76
2022/12/05 01:30:26;;;;;;;;;;;4.30;99.10;;;;;;5061345;28;20014;-76
2022/12/05 01:32:55;;;;;;;;;;;4.30;99.10;;;;;;5061119;28;20011;-76
2022/12/05 01:35:21;;;;;;;;;;;4.30;99.10;;;;;;5058646;28;19987;-74
2022/12/05 01:37:48;;;;;;;;;;;4.30;99.10;;;;;;5059696;28;19980;-76
2022/12/05 01:40:15;;;;;;;;;;;4.30;99.10;;;;;;5061186;28;20522;-77
2022/12/05 01:42:41;;;;;;;;;;;4.30;99.10;;;;;;5060509;28;20605;-76
2022/12/05 01:45:14;;;;;;;;;;;4.30;99.10;;;;;;5063518;28;19991;-77
2022/12/05 01:47:40;;;;;;;;;;;4.30;99.10;;;;;;5061465;28;20005;-76
2022/12/05 01:50:09;;;;;;;;;;;4.30;99.10;;;;;;5063841;28;20078;-77
2022/12/05 01:52:36;;;;;;;;;;;4.30;99.10;;;;;;5060836;28;19987;-75
2022/12/05 01:55:07;;;;;;;;;;;4.30;99.10;;;;;;5061111;28;19976;-76
2022/12/05 01:57:34;;;;;;;;;;;4.30;99.10;;;;;;5057656;28;19979;-77
2022/12/05 02:00:03;;;;;;;;;;;4.30;99.20;;;;;;5063627;28;19992;-75
2022/12/05 02:02:31;;;;;;;;;;;4.30;99.20;;;;;;5064321;28;19991;-76
2022/12/05 02:05:01;;;;;;;;;;;4.30;99.20;;;;;;5057406;28;19971;-77
2022/12/05 02:07:29;;;;;;;;;;;4.30;99.20;;;;;;5065278;28;19975;-76
2022/12/05 02:09:56;;;;;;;;;;;4.30;99.20;;;;;;5062918;28;20006;-77
2022/12/05 02:12:23;;;;;;;;;;;4.30;99.20;;;;;;5064318;28;20359;-77
2022/12/05 02:14:57;;;;;;;;;;;4.30;99.20;;;;;;5065340;28;20196;-76
2022/12/05 02:17:25;;;;;;;;;;;4.30;99.20;;;;;;5060395;28;19991;-76
2022/12/05 02:20:07;;;;;;;;;;;4.30;99.20;;;;;;5060333;28;19995;-76
2022/12/05 02:22:52;;;;;;;;;;;4.30;99.20;;;;;;5063659;28;19983;-77
2022/12/05 02:25:25;;;;;;;;;;;4.30;99.20;;;;;;5058890;28;19975;-77
2022/12/05 02:28:07;;;;;;;;;;;4.30;99.20;;;;;;5063225;28;20718;-77
2022/12/05 02:30:37;;;;;;;;;;;4.30;99.20;;;;;;5057737;28;20078;-76
2022/12/05 02:33:08;;;;;;;;;;;4.30;99.20;;;;;;5056198;28;20956;-77
2022/12/05 02:35:38;;;;;;;;;;;4.30;99.20;;;;;;5061137;28;19975;-77
2022/12/05 02:38:12;;;;;;;;;;;4.30;99.20;;;;;;5062437;28;19982;-75
2022/12/05 02:40:41;;;;;;;;;;;4.30;99.20;;;;;;5057972;28;20366;-74
2022/12/05 02:43:11;;;;;;;;;;;4.30;99.20;;;;;;5060811;28;19983;-76
2022/12/05 02:45:41;;;;;;;;;;;4.30;99.20;;;;;;5061387;28;20729;-75
2022/12/05 02:48:08;;;;;;;;;;;4.30;99.20;;;;;;5057098;28;19986;-77
2022/12/05 02:50:37;;;;;;;;;;;4.30;99.20;;;;;;5061257;28;20003;-77
2022/12/05 02:53:06;;;;;;;;;;;4.30;99.20;;;;;;5058970;28;19991;-76
2022/12/05 02:55:33;;;;;;;;;;;4.30;99.20;;;;;;5062934;28;19984;-78
2022/12/05 02:58:01;;;;;;;;;;;4.30;99.20;;;;;;5063718;28;20006;-78
2022/12/05 03:00:28;;;;;;;;;;;4.30;99.20;;;;;;5065375;28;20006;-78
2022/12/05 03:02:58;;;;;;;;;;;4.30;99.20;;;;;;5062168;28;19976;-77
2022/12/05 03:05:32;;;;;;;;;;;4.30;99.20;;;;;;5061346;28;19976;-77
2022/12/05 03:08:00;;;;;;;;;;;4.30;99.20;;;;;;5060603;28;19980;-78
2022/12/05 03:10:28;;;;;;;;;;;4.30;99.30;;;;;;5061820;28;19995;-77
2022/12/05 03:12:56;;;;;;;;;;;4.30;99.30;;;;;;5058348;28;19992;-77
2022/12/05 03:15:25;;;;;;;;;;;4.30;99.30;;;;;;5060154;28;20451;-78
2022/12/05 03:17:53;;;;;;;;;;;4.30;99.30;;;;;;5061849;28;20197;-78
2022/12/05 03:20:25;;;;;;;;;;;4.30;99.30;;;;;;5058700;28;19991;-77
2022/12/05 03:22:53;;;;;;;;;;;4.30;99.30;;;;;;5064952;28;19979;-78
2022/12/05 03:25:23;;;;;;;;;;;4.30;99.30;;;;;;5063083;28;19975;-78
2022/12/05 03:27:51;;;;;;;;;;;4.30;99.30;;;;;;5062269;28;20069;-78
2022/12/05 03:30:19;;;;;;;;;;;4.30;99.30;;;;;;5062454;28;20379;-78
2022/12/05 03:32:49;;;;;;;;;;;4.30;99.30;;;;;;5063836;28;19987;-78
2022/12/05 03:35:20;;;;;;;;;;;4.30;99.30;;;;;;5060022;28;19976;-78
2022/12/05 03:37:52;;;;;;;;;;;4.30;99.30;;;;;;5056369;28;20018;-77
2022/12/05 03:40:25;;;;;;;;;;;4.30;99.30;;;;;;5063944;28;20002;-77
2022/12/05 03:42:54;;;;;;;;;;;4.30;99.30;;;;;;5065315;28;20022;-78
2022/12/05 03:45:24;;;;;;;;;;;4.30;99.30;;;;;;5062747;28;20002;-77
2022/12/05 03:47:55;;;;;;;;;;;4.30;99.30;;;;;;5059118;28;21339;-78
2022/12/05 03:50:24;;;;;;;;;;;4.30;99.30;;;;;;5062513;28;20366;-78
2022/12/05 03:52:54;;;;;;;;;;;4.30;99.30;;;;;;5059753;28;19995;-76
2022/12/05 03:55:23;;;;;;;;;;;4.30;99.30;;;;;;5061134;28;19975;-77
2022/12/05 03:57:52;;;;;;;;;;;4.30;99.30;;;;;;5065320;28;19979;-77
2022/12/05 04:00:20;;;;;;;;;;;4.30;99.30;;;;;;5060934;28;19991;-78
2022/12/05 04:02:49;;;;;;;;;;;4.30;99.20;;;;;;5063040;28;19984;-77
2022/12/05 04:05:19;;;;;;;;;;;4.30;99.30;;;;;;5066149;28;19975;-78
2022/12/05 04:07:46;;;;;;;;;;;4.30;99.20;;;;;;5057550;28;20066;-78
2022/12/05 04:10:16;;;;;;;;;;;4.30;99.30;;;;;;5063191;28;19991;-77
2022/12/05 04:12:44;;;;;;;;;;;4.30;99.30;;;;;;5066586;28;20459;-78
2022/12/05 04:15:14;;;;;;;;;;;4.30;99.30;;;;;;5065000;28;19983;-78
2022/12/05 04:17:44;;;;;;;;;;;4.30;99.30;;;;;;5059761;28;20030;-76
2022/12/05 04:22:57;;;;;;;;;;;4.30;99.30;;;;;;5065652;28;19982;-77
2022/12/05 04:25:33;;;;;;;;;;;4.30;99.30;;;;;;5064189;28;19972;-76
2022/12/05 04:28:05;;;;;;;;;;;4.30;99.30;;;;;;5066009;28;20078;-78
2022/12/05 04:30:35;;;;;;;;;;;4.30;99.20;;;;;;5065508;28;20007;-77
2022/12/05 04:33:04;;;;;;;;;;;4.30;99.30;;;;;;5064035;28;19991;-78
2022/12/05 04:35:34;;;;;;;;;;;4.30;99.30;;;;;;5061478;28;20418;-77
2022/12/05 04:38:03;;;;;;;;;;;4.30;99.30;;;;;;5061124;28;19982;-77
2022/12/05 04:40:34;;;;;;;;;;;4.30;99.30;;;;;;5061545;28;19998;-77
2022/12/05 04:43:01;;;;;;;;;;;4.30;99.30;;;;;;5060265;28;19980;-77
2022/12/05 04:45:29;;;;;;;;;;;4.30;99.30;;;;;;5064326;28;20002;-78
2022/12/05 04:47:58;;;;;;;;;;;4.30;99.30;;;;;;5065678;28;19986;-76
2022/12/05 04:50:26;;;;;;;;;;;4.30;99.20;;;;;;5061543;28;19995;-77
2022/12/05 04:52:54;;;;;;;;;;;4.40;99.30;;;;;;5065549;28;20015;-78
2022/12/05 04:55:24;;;;;;;;;;;4.30;99.30;;;;;;5067189;28;19983;-78
2022/12/05 04:57:56;;;;;;;;;;;4.30;99.20;;;;;;5060986;28;19980;-76
2022/12/05 05:00:22;;;;;;;;;;;4.30;99.20;;;;;;5063759;28;19998;-77
2022/12/05 05:02:54;;;;;;;;;;;4.30;99.20;;;;;;5063847;28;19979;-77
2022/12/05 05:05:22;;;;;;;;;;;4.30;99.30;;;;;;5062717;28;20747;-78
2022/12/05 05:07:50;;;;;;;;;;;4.30;99.30;;;;;;5067970;28;20083;-77
2022/12/05 05:10:19;;;;;;;;;;;4.30;99.30;;;;;;5068768;28;20006;-78
2022/12/05 05:12:46;;;;;;;;;;;4.30;99.30;;;;;;5067668;28;20541;-77
2022/12/05 05:15:14;;;;;;;;;;;4.30;99.20;;;;;;5068153;28;19975;-76
2022/12/05 05:17:40;;;;;;;;;;;4.30;99.30;;;;;;5066901;28;19976;-77
2022/12/05 05:22:48;;;;;;;;;;;4.30;99.30;;;;;;5064938;28;20093;-78
2022/12/05 05:25:15;;;;;;;;;;;4.30;99.30;;;;;;5064430;28;20472;-78
2022/12/05 05:27:42;;;;;;;;;;;4.30;99.30;;;;;;5068263;28;19979;-77
2022/12/05 05:30:09;;;;;;;;;;;4.30;99.30;;;;;;5067848;28;19996;-78
2022/12/05 05:32:36;;;;;;;;;;;4.30;99.30;;;;;;5068106;28;19988;-78
2022/12/05 05:35:03;;;;;;;;;;;4.30;99.30;;;;;;5068845;28;19972;-78
2022/12/05 05:37:30;;;;;;;;;;;4.30;99.30;;;;;;5067365;28;20287;-78
2022/12/05 05:39:56;;;;;;;;;;;4.30;99.30;;;;;;5068936;28;20623;-77
2022/12/05 05:42:23;;;;;;;;;;;4.30;99.30;;;;;;5065443;28;20044;-77
2022/12/05 05:44:49;;;;;;;;;;;4.30;99.30;;;;;;5065111;28;19979;-77
2022/12/05 05:47:16;;;;;;;;;;;4.30;99.30;;;;;;5063161;28;20003;-77
2022/12/05 05:49:44;;;;;;;;;;;4.30;99.30;;;;;;5057370;28;19999;-77
2022/12/05 05:52:11;;;;;;;;;;;4.30;99.30;;;;;;5065144;28;19979;-78
2022/12/05 05:54:37;;;;;;;;;;;4.30;99.20;;;;;;5064637;28;19999;-77
2022/12/05 05:57:04;;;;;;;;;;;4.30;99.60;;;;;;5062616;28;19976;-77
2022/12/05 05:59:30;;;;;;;;;;;4.30;99.30;;;;;;5066015;28;19991;-78
2022/12/05 06:01:57;;;;;;;;;;;4.30;99.30;;;;;;5056362;28;21283;-78
2022/12/05 06:04:24;;;;;;;;;;;4.30;99.30;;;;;;5057267;28;19975;-78
2022/12/05 06:06:51;;;;;;;;;;;4.30;99.30;;;;;;5059446;28;20424;-77
2022/12/05 06:09:18;;;;;;;;;;;4.30;99.30;;;;;;5059383;28;19991;-78
2022/12/05 06:11:45;;;;;;;;;;;4.30;99.30;;;;;;5065383;28;19975;-77
2022/12/05 06:14:11;;;;;;;;;;;4.30;99.20;;;;;;5063782;28;19991;-77
2022/12/05 06:16:38;;;;;;;;;;;4.30;99.20;;;;;;5063089;28;19995;-76
2022/12/05 06:19:04;;;;;;;;;;;4.30;99.20;;;;;;5064225;28;19991;-78
2022/12/05 06:21:31;;;;;;;;;;;4.30;99.20;;;;;;5063650;28;19991;-78
2022/12/05 06:23:59;;;;;;;;;;;4.30;99.20;;;;;;5062454;28;19980;-77
2022/12/05 06:26:25;;;;;;;;;;;4.30;99.20;;;;;;5065078;28;19975;-77
2022/12/05 06:28:53;;;;;;;;;;;4.30;99.20;;;;;;5063503;28;20018;-76
2022/12/05 06:31:20;;;;;;;;;;;4.30;99.20;;;;;;5062802;28;19996;-78
2022/12/05 06:33:47;;;;;;;;;;;4.40;99.30;;;;;;5063972;28;20010;-77
2022/12/05 06:36:15;;;;;;;;;;;4.40;99.30;;;;;;5064154;28;19978;-76
2022/12/05 06:38:42;;;;;;;;;;;4.30;99.30;;;;;;5063369;28;19999;-77
2022/12/05 06:41:11;;;;;;;;;;;4.30;99.30;;;;;;5060847;28;19975;-77
2022/12/05 06:43:37;;;;;;;;;;;4.40;99.30;;;;;;5054874;28;19979;-77
2022/12/05 06:46:04;;;;;;;;;;;4.30;99.30;;;;;;5057152;28;19998;-77
2022/12/05 06:48:31;;;;;;;;;;;4.30;99.60;;;;;;5050296;28;19975;-78
2022/12/05 06:50:57;;;;;;;;;;;4.40;99.30;;;;;;5053010;28;19971;-78
2022/12/05 06:53:25;;;;;;;;;;;4.30;99.20;;;;;;5061046;28;19991;-73
2022/12/05 06:55:55;;;;;;;;;;;4.30;99.20;;;;;;5067264;28;19980;-74
2022/12/05 06:58:23;;;;;;;;;;;4.30;99.20;;;;;;5064258;28;19975;-74
2022/12/05 07:03:33;;;;;;;;;;;4.30;99.20;;;;;;5061715;28;20064;-72
2022/12/05 07:06:00;;;;;;;;;;;4.30;99.20;;;;;;5065411;28;19975;-74
2022/12/05 07:08:27;;;;;;;;;;;4.40;99.30;;;;;;5064702;28;20487;-73
2022/12/05 07:10:54;;;;;;;;;;;4.30;99.20;;;;;;5066303;28;19980;-74
2022/12/05 07:13:22;;;;;;;;;;;4.30;99.20;;;;;;5066170;28;19995;-72
2022/12/05 07:15:50;;;;;;;;;;;4.30;99.30;;;;;;5063881;28;20046;-74
2022/12/05 07:18:17;;;;;;;;;;;4.30;99.30;;;;;;5059811;28;19971;-73
2022/12/05 07:20:44;;;;;;;;;;;4.30;99.30;;;;;;5066114;28;20443;-74
2022/12/05 07:23:11;;;;;;;;;;;4.30;99.30;;;;;;5071296;28;19971;-73
2022/12/05 07:25:39;;;;;;;;;;;4.30;99.30;;;;;;5056910;28;20058;-74
2022/12/05 07:28:05;;;;;;;;;;;4.30;99.30;;;;;;5060438;28;19976;-74
2022/12/05 07:30:33;;;;;;;;;;;4.30;99.30;;;;;;5064381;28;20042;-74
2022/12/05 07:33:00;;;;;;;;;;;4.30;99.30;;;;;;5063478;28;20458;-78
2022/12/05 07:35:26;;;;;;;;;;;4.30;99.30;;;;;;5059676;28;19987;-76
2022/12/05 07:37:53;;;;;;;;;;;4.30;99.30;;;;;;5060728;28;20270;-77
2022/12/05 07:40:19;;;;;;;;;;;4.30;99.30;;;;;;5063005;28;20669;-78
2022/12/05 07:42:47;;;;;;;;;;;4.40;99.30;;;;;;5055422;28;19980;-77
2022/12/05 07:45:14;;;;;;;;;;;4.40;99.40;;;;;;5059253;28;19976;-76
2022/12/05 07:47:42;;;;;;;;;;;4.40;99.30;;;;;;5053668;28;19979;-78
2022/12/05 07:50:09;;;;;;;;;;;4.40;99.30;;;;;;5060647;28;19991;-77
2022/12/05 07:52:35;;;;;;;;;;;4.40;99.30;;;;;;5060628;28;19975;-76
2022/12/05 07:55:02;;;;;;;;;;;4.40;99.30;;;;;;5058959;28;20038;-77
2022/12/05 07:57:29;;;;;;;;;;;4.40;99.30;;;;;;5062640;28;19979;-77
2022/12/05 07:59:55;;;;;;;;;;;4.40;99.30;;;;;;5062029;28;20731;-77
2022/12/05 08:02:22;;;;;;;;;;;4.40;99.30;;;;;;5053467;28;19991;-77
2022/12/05 08:04:50;;;;;;;;;;;4.40;99.30;;;;;;5061591;28;19979;-77
2022/12/05 08:07:16;;;;;;;;;;;4.40;99.30;;;;;;5058376;28;19975;-76
2022/12/05 08:09:43;;;;;;;;;;;4.40;99.30;;;;;;5059995;28;19998;-77
2022/12/05 08:12:10;;;;;;;;;;;4.40;99.60;;;;;;5058391;28;20427;-78
2022/12/05 08:14:36;;;;;;;;;;;4.40;99.30;;;;;;5061467;28;19991;-77
2022/12/05 08:17:03;;;;;;;;;;;4.40;99.30;;;;;;5068609;28;19987;-76
2022/12/05 08:19:30;;;;;;;;;;;4.40;99.30;;;;;;5067601;28;20440;-77
2022/12/05 08:21:58;;;;;;;;;;;4.40;99.30;;;;;;5062840;28;20332;-77
2022/12/05 08:24:24;;;;;;;;;;;4.40;99.20;;;;;;5066075;28;19975;-77
2022/12/05 08:26:51;;;;;;;;;;;4.40;99.20;;;;;;5064942;28;20101;-77
2022/12/05 08:29:20;;;;;;;;;;;4.40;99.50;;;;;;5065651;28;20000;-77
2022/12/05 08:31:47;;;;;;;;;;;4.40;99.20;;;;;;5063934;28;19999;-77
2022/12/05 08:34:15;;;;;;;;;;;4.40;99.20;;;;;;5060273;28;19991;-76
2022/12/05 08:36:41;;;;;;;;;;;4.40;99.20;;;;;;5061105;28;19975;-77
2022/12/05 08:39:13;;;;;;;;;;;4.40;99.20;;;;;;5055698;28;20328;-76
2022/12/05 08:41:39;;;;;;;;;;;4.40;99.20;;;;;;5063179;28;19980;-77
2022/12/05 08:44:07;;;;;;;;;;;4.40;99.20;;;;;;5062447;28;19980;-77
2022/12/05 08:46:35;;;;;;;;;;;4.50;99.30;;;;;;5057982;28;20551;-75
2022/12/05 08:49:02;;;;;;;;;;;4.40;99.20;;;;;;5061788;28;19991;-77
2022/12/05 08:51:28;;;;;;;;;;;4.50;99.20;;;;;;5064860;28;19975;-77
2022/12/05 08:53:56;;;;;;;;;;;4.50;99.30;;;;;;5066694;28;19995;-75
2022/12/05 08:56:24;;;;;;;;;;;4.50;99.20;;;;;;5056838;28;20026;-77
2022/12/05 08:58:50;;;;;;;;;;;4.50;99.20;;;;;;5055744;28;19995;-77
2022/12/05 09:01:18;;;;;;;;;;;4.50;99.20;;;;;;5063079;28;19998;-77
2022/12/05 09:03:45;;;;;;;;;;;4.50;99.20;;;;;;5063432;28;19982;-75
2022/12/05 09:06:13;;;;;;;;;;;4.50;99.20;;;;;;5057822;28;20431;-77
2022/12/05 09:08:40;;;;;;;;;;;4.50;99.20;;;;;;5062422;28;20373;-74
2022/12/05 09:11:07;;;;;;;;;;;4.50;99.20;;;;;;5054631;28;19982;-77
2022/12/05 09:13:35;;;;;;;;;;;4.50;99.20;;;;;;5063724;28;19971;-77
2022/12/05 09:16:06;;;;;;;;;;;4.50;99.20;;;;;;5060946;28;20049;-76
2022/12/05 09:18:33;;;;;;;;;;;4.50;99.20;;;;;;5059475;28;20025;-77
2022/12/05 09:21:04;;;;;;;;;;;4.50;99.20;;;;;;5063562;28;19983;-77
2022/12/05 09:23:31;;;;;;;;;;;4.50;99.20;;;;;;5060057;28;19975;-76
2022/12/05 09:26:01;;;;;;;;;;;4.50;99.30;;;;;;5057944;28;19987;-77
2022/12/05 09:28:28;;;;;;;;;;;4.50;99.20;;;;;;5055687;28;19976;-76
2022/12/05 09:31:01;;;;;;;;;;;4.50;99.20;;;;;;5059941;28;20714;-77
2022/12/05 09:33:27;;;;;;;;;;;4.50;99.30;;;;;;5063917;28;20057;-76
2022/12/05 09:35:54;;;;;;;;;;;4.60;99.30;;;;;;5059407;28;19987;-76
2022/12/05 09:38:20;;;;;;;;;;;4.60;99.30;;;;;;5053841;28;19976;-77
2022/12/05 09:40:48;;;;;;;;;;;4.50;99.30;;;;;;5065360;28;19990;-76
2022/12/05 09:43:21;;;;;;;;;;;4.60;99.30;;;;;;5057441;28;19980;-77
2022/12/05 09:45:52;;;;;;;;;;;4.60;99.30;;;;;;5059060;28;19996;-76
2022/12/05 09:48:22;;;;;;;;;;;4.60;99.30;;;;;;5054046;28;20588;-76
2022/12/05 09:50:50;;;;;;;;;;;4.60;99.30;;;;;;5057312;28;19980;-77
2022/12/05 09:53:22;;;;;;;;;;;4.60;99.40;;;;;;5060651;28;20042;-76
2022/12/05 09:55:51;;;;;;;;;;;4.60;99.30;;;;;;5062397;28;19995;-77
2022/12/05 09:58:25;;;;;;;;;;;4.60;99.40;;;;;;5062436;28;19994;-76
2022/12/05 10:00:52;;;;;;;;;;;4.60;99.40;;;;;;5065125;28;19991;-76
2022/12/05 10:03:22;;;;;;;;;;;4.60;99.40;;;;;;5066395;28;19980;-77
2022/12/05 10:05:51;;;;;;;;;;;4.70;99.40;;;;;;5065617;28;19983;-77
2022/12/05 10:08:21;;;;;;;;;;;4.70;99.40;;;;;;5060632;28;19987;-77
2022/12/05 10:10:54;;;;;;;;;;;4.60;99.40;;;;;;5056556;28;19975;-76
2022/12/05 10:13:26;;;;;;;;;;;4.70;99.40;;;;;;5063072;28;19971;-76
2022/12/05 10:15:55;;;;;;;;;;;4.70;99.50;;;;;;5060623;28;19999;-77
2022/12/05 10:18:28;;;;;;;;;;;4.70;99.80;;;;;;5060858;28;19972;-75
2022/12/05 10:20:58;;;;;;;;;;;4.70;99.50;;;;;;5059905;28;20678;-76
2022/12/05 10:23:27;;;;;;;;;;;4.70;99.50;;;;;;5055054;28;19975;-77
2022/12/05 10:25:56;;;;;;;;;;;4.70;99.50;;;;;;5061993;28;20580;-77
2022/12/05 10:28:29;;;;;;;;;;;4.70;99.50;;;;;;5060418;28;20474;-77
2022/12/05 10:30:58;;;;;;;;;;;4.70;99.40;;;;;;5048426;28;20002;-77
2022/12/05 10:33:28;;;;;;;;;;;4.70;99.40;;;;;;5062931;28;19982;-77
2022/12/05 10:35:55;;;;;;;;;;;4.70;99.40;;;;;;5063297;28;19991;-78
2022/12/05 10:38:23;;;;;;;;;;;4.70;99.40;;;;;;5070133;28;19975;-77
2022/12/05 10:40:51;;;;;;;;;;;4.70;99.30;;;;;;5053171;28;19980;-77
2022/12/05 10:43:23;;;;;;;;;;;4.70;99.30;;;;;;5059372;28;19983;-77
2022/12/05 10:45:50;;;;;;;;;;;4.70;99.30;;;;;;5063613;28;20475;-77
2022/12/05 10:48:17;;;;;;;;;;;4.70;99.30;;;;;;5064162;28;19976;-77
2022/12/05 10:50:47;;;;;;;;;;;4.70;99.30;;;;;;5062363;28;19976;-77
2022/12/05 10:53:15;;;;;;;;;;;4.80;99.30;;;;;;5059164;28;20072;-77
2022/12/05 10:55:42;;;;;;;;;;;4.70;99.20;;;;;;5058575;28;19998;-75
2022/12/05 10:58:11;;;;;;;;;;;4.70;99.20;;;;;;5059474;28;20506;-76
2022/12/05 11:00:42;;;;;;;;;;;4.80;99.20;;;;;;5056891;28;20112;-74
2022/12/05 11:03:19;;;;;;;;;;;4.70;99.20;;;;;;5054002;28;20346;-76
2022/12/05 11:05:49;;;;;;;;;;;4.80;99.20;;;;;;5056478;28;20378;-75
2022/12/05 11:08:23;;;;;;;;;;;4.80;99.20;;;;;;5058751;28;20447;-77
2022/12/05 11:10:58;;;;;;;;;;;4.80;99.10;;;;;;5061409;28;19979;-76
2022/12/05 11:13:25;;;;;;;;;;;4.80;99.10;;;;;;5061117;28;19975;-78
2022/12/05 11:15:52;;;;;;;;;;;4.80;99.10;;;;;;5056810;28;19995;-77
2022/12/05 11:18:19;;;;;;;;;;;4.80;99.10;;;;;;5058800;28;19992;-75
2022/12/05 11:20:47;;;;;;;;;;;4.80;99.10;;;;;;5064195;28;20438;-77
2022/12/05 11:23:22;;;;;;;;;;;4.80;99.10;;;;;;5063644;28;20706;-77
2022/12/05 11:25:49;;;;;;;;;;;4.80;99.00;;;;;;5062207;28;20066;-77
2022/12/05 11:28:31;;;;;;;;;;;4.80;99.00;;;;;;5059438;28;19982;-76
2022/12/05 11:30:58;;;;;;;;;;;4.80;99.00;;;;;;5059476;28;19995;-76
2022/12/05 11:33:26;;;;;;;;;;;4.80;99.00;;;;;;5055766;28;20747;-77
2022/12/05 11:35:56;;;;;;;;;;;4.90;99.00;;;;;;5054201;28;19991;-78
2022/12/05 11:38:26;;;;;;;;;;;4.90;99.00;;;;;;5057014;28;19975;-78
2022/12/05 11:40:54;;;;;;;;;;;4.90;99.00;;;;;;5058540;28;19979;-77
2022/12/05 11:43:39;;;;;;;;;;;4.80;99.00;;;;;;5059255;28;20352;-76
2022/12/05 11:46:08;;;;;;;;;;;4.90;99.00;;;;;;5052882;28;20706;-77
2022/12/05 11:48:41;;;;;;;;;;;4.90;99.00;;;;;;5053816;28;19982;-77
2022/12/05 11:51:18;;;;;;;;;;;4.90;99.30;;;;;;5049689;28;19975;-77
2022/12/05 11:54:02;;;;;;;;;;;4.90;99.00;;;;;;5054715;28;20777;-77
2022/12/05 11:56:34;;;;;;;;;;;4.90;98.90;;;;;;5053689;28;20002;-77
2022/12/05 11:59:16;;;;;;;;;;;4.90;99.00;;;;;;5055736;28;19995;-78
2022/12/05 12:01:46;;;;;;;;;;;4.90;99.00;;;;;;5059334;28;19991;-77
2022/12/05 12:04:34;;;;;;;;;;;4.90;98.90;;;;;;5055676;28;19975;-77
2022/12/05 12:07:09;;;;;;;;;;;5.00;99.00;;;;;;5051850;28;20055;-77
2022/12/05 12:09:41;;;;;;;;;;;5.00;99.00;;;;;;5058910;28;20514;-76
2022/12/05 12:12:20;;;;;;;;;;;5.00;98.90;;;;;;5061204;28;19980;-78
2022/12/05 12:14:50;;;;;;;;;;;5.00;98.90;;;;;;5058984;28;19999;-77
2022/12/05 12:17:21;;;;;;;;;;;5.00;98.90;;;;;;5059389;28;20451;-79
2022/12/05 12:20:17;;;;;;;;;;;5.10;98.90;;;;;;5060060;28;19992;-76
2022/12/05 12:22:55;;;;;;;;;;;5.10;98.90;;;;;;4995031;28;19980;-78
2022/12/05 12:25:28;;;;;;;;;;;5.10;98.90;;;;;;5045487;28;19979;-78
2022/12/05 12:28:04;;;;;;;;;;;5.10;98.90;;;;;;5057154;28;19979;-78
2022/12/05 12:30:36;;;;;;;;;;;5.20;99.10;;;;;;5056338;28;20082;-79
2022/12/05 12:33:05;;;;;;;;;;;5.20;99.10;;;;;;5058381;28;19976;-77
2022/12/05 12:35:32;;;;;;;;;;;5.20;99.10;;;;;;5059485;28;20751;-78
2022/12/05 12:38:12;;;;;;;;;;;5.20;99.10;;;;;;5059406;28;19979;-78
2022/12/05 12:40:43;;;;;;;;;;;5.20;99.10;;;;;;5058255;28;20466;-77
2022/12/05 12:43:16;;;;;;;;;;;5.20;99.00;;;;;;5059936;28;19982;-78
2022/12/05 12:46:06;;;;;;;;;;;5.20;99.00;;;;;;5056394;28;20003;-78
2022/12/05 12:48:42;;;;;;;;;;;5.20;99.00;;;;;;5060087;28;19982;-76
2022/12/05 12:51:11;;;;;;;;;;;5.20;99.00;;;;;;5055057;28;19986;-76
2022/12/05 12:53:50;;;;;;;;;;;5.20;99.00;;;;;;5056068;28;19975;-77
2022/12/05 12:56:21;;;;;;;;;;;5.20;99.00;;;;;;5052790;28;19994;-77
2022/12/05 12:58:50;;;;;;;;;;;5.30;99.00;;;;;;5055497;28;19995;-76
2022/12/05 13:01:22;;;;;;;;;;;5.30;99.00;;;;;;5059543;28;20564;-76
2022/12/05 13:03:50;;;;;;;;;;;5.30;99.00;;;;;;5062786;28;20040;-77
2022/12/05 13:06:21;;;;;;;;;;;5.30;98.90;;;;;;5059505;28;22108;-76
2022/12/05 13:08:51;;;;;;;;;;;5.30;98.90;;;;;;5063385;28;20641;-76
2022/12/05 13:11:18;;;;;;;;;;;5.30;98.90;;;;;;5061708;28;19976;-77
2022/12/05 13:13:47;;;;;;;;;;;5.30;98.90;;;;;;5060054;28;19982;-76
2022/12/05 13:16:20;;;;;;;;;;;5.30;98.90;;;;;;5062211;28;20006;-78
2022/12/05 13:18:46;;;;;;;;;;;5.30;98.90;;;;;;5063186;28;19999;-76
2022/12/05 13:21:13;;;;;;;;;;;5.30;98.90;;;;;;5066332;28;20041;-75
2022/12/05 13:23:43;;;;;;;;;;;5.40;98.90;;;;;;5060411;28;19975;-78
2022/12/05 13:26:12;;;;;;;;;;;5.30;98.90;;;;;;5061477;28;19991;-76
2022/12/05 13:28:41;;;;;;;;;;;5.30;98.90;;;;;;5064059;28;19995;-78
2022/12/05 13:31:09;;;;;;;;;;;5.30;98.80;;;;;;5058919;28;20038;-77
2022/12/05 13:33:36;;;;;;;;;;;5.30;98.80;;;;;;5064347;28;19982;-78
2022/12/05 13:44:32;;;;;;;;;;;5.40;98.80;;;;;;5060753;28;19987;-76
2022/12/05 13:46:59;;;;;;;;;;;5.40;98.80;;;;;;5057781;28;19987;-77
2022/12/05 13:49:29;;;;;;;;;;;5.40;98.80;;;;;;5059685;28;19999;-76
2022/12/05 13:52:04;;;;;;;;;;;5.40;98.80;;;;;;5062485;28;20570;-78
2022/12/05 13:54:32;;;;;;;;;;;5.40;98.80;;;;;;5059539;28;19981;-71
2022/12/05 13:57:01;;;;;;;;;;;5.40;98.80;;;;;;5062878;28;19991;-72
2022/12/05 13:59:46;;;;;;;;;;;5.40;98.80;;;;;;5063383;28;20495;-71
2022/12/05 14:02:27;;;;;;;;;;;5.50;98.80;;;;;;5064718;28;19991;-72
2022/12/05 14:04:54;;;;;;;;;;;5.40;98.80;;;;;;5061856;28;20381;-72
2022/12/05 14:07:45;;;;;;;;;;;5.40;98.70;;;;;;5064481;28;20398;-71
2022/12/05 14:10:15;;;;;;;;;;;5.50;98.70;;;;;;5049528;28;19995;-71
2022/12/05 14:12:48;;;;;;;;;;;5.40;98.70;;;;;;5065188;28;20351;-72
2022/12/05 14:15:28;;;;;;;;;;;5.50;98.70;;;;;;5058905;28;20041;-72
2022/12/05 14:17:56;;;;;;;;;;;5.50;98.70;;;;;;5063477;28;19983;-72
2022/12/05 14:20:25;;;;;;;;;;;5.50;98.70;;;;;;5057249;28;19991;-72
2022/12/05 14:23:10;;;;;;;;;;;5.50;98.70;;;;;;5055302;28;19983;-72
2022/12/05 14:25:41;;;;;;;;;;;5.50;98.70;;;;;;5057224;28;20573;-72
2022/12/05 14:28:19;;;;;;;;;;;5.50;98.70;;;;;;5063230;28;19975;-71
2022/12/05 14:30:52;;;;;;;;;;;5.50;98.70;;;;;;5060380;28;20022;-71
2022/12/05 14:33:22;;;;;;;;;;;5.50;98.70;;;;;;5059947;28;19975;-71
2022/12/05 14:35:50;;;;;;;;;;;5.50;98.70;;;;;;5064187;28;20003;-72
2022/12/05 14:38:21;;;;;;;;;;;5.50;98.70;;;;;;5062595;28;20385;-72
2022/12/05 14:40:48;;;;;;;;;;;5.50;98.70;;;;;;5067624;28;20005;-80
2022/12/05 14:43:19;;;;;;;;;;;5.50;98.70;;;;;;5075539;28;19979;-81
2022/12/05 14:45:56;;;;;;;;;;;5.50;98.70;;;;;;5071436;28;20002;-81
2022/12/05 14:48:26;;;;;;;;;;;5.50;98.70;;;;;;5079619;28;19971;-79
2022/12/05 14:50:53;;;;;;;;;;;5.50;98.70;;;;;;5076236;28;19979;-80
2022/12/05 14:53:26;;;;;;;;;;;5.50;98.70;;;;;;5079429;28;19976;-80
2022/12/05 14:55:54;;;;;;;;;;;5.50;98.70;;;;;;5073418;28;19993;-80
2022/12/05 14:58:33;;;;;;;;;;;5.50;98.70;;;;;;5071543;28;20046;-81
2022/12/05 15:01:02;;;;;;;;;;;5.50;98.70;;;;;;5066553;28;19991;-80